createdAt,value
2022-12-25T00:00:48.113Z,7.46
2022-12-25T00:01:48.069Z,7.46
2022-12-25T00:02:48.127Z,7.46
2022-12-25T00:03:48.201Z,7.43
2022-12-25T00:04:48.048Z,7.45
2022-12-25T00:05:48.056Z,7.43
2022-12-25T00:06:48.039Z,7.39
2022-12-25T00:07:48.042Z,7.40
2022-12-25T00:08:48.076Z,7.32
2022-12-25T00:09:48.055Z,7.30
2022-12-25T00:10:48.043Z,7.28
2022-12-25T00:11:48.053Z,7.21
2022-12-25T00:12:48.047Z,7.39
2022-12-25T00:13:48.041Z,7.35
2022-12-25T00:14:48.033Z,7.30
2022-12-25T00:15:48.032Z,7.24
2022-12-25T00:16:48.140Z,7.30
2022-12-25T00:17:48.027Z,7.27
2022-12-25T00:18:48.030Z,7.23
2022-12-25T00:19:48.033Z,7.16
2022-12-25T00:20:48.033Z,7.15
2022-12-25T00:21:48.010Z,7.24
2022-12-25T00:22:48.013Z,7.13
2022-12-25T00:23:48.009Z,7.23
2022-12-25T00:24:48.000Z,7.12
2022-12-25T00:25:48.003Z,7.16
2022-12-25T00:26:48.024Z,7.13
2022-12-25T00:27:48.002Z,7.15
2022-12-25T00:28:47.991Z,7.16
2022-12-25T00:29:47.993Z,7.20
2022-12-25T00:30:47.997Z,7.10
2022-12-25T00:31:48.065Z,7.13
2022-12-25T00:32:48.028Z,7.07
2022-12-25T00:33:48.002Z,7.16
2022-12-25T00:34:47.980Z,7.17
2022-12-25T00:35:48.003Z,7.06
2022-12-25T00:36:47.971Z,7.12
2022-12-25T00:37:47.967Z,7.10
2022-12-25T00:38:47.977Z,7.06
2022-12-25T00:39:47.964Z,7.03
2022-12-25T00:40:47.960Z,7.09
2022-12-25T00:41:47.963Z,7.09
2022-12-25T00:42:47.959Z,6.99
2022-12-25T00:43:47.961Z,7.03
2022-12-25T00:44:47.941Z,7.03
2022-12-25T00:45:47.994Z,6.97
2022-12-25T00:46:47.975Z,6.95
2022-12-25T00:47:47.997Z,6.87
2022-12-25T00:48:47.944Z,6.87
2022-12-25T00:49:47.945Z,6.81
2022-12-25T00:50:47.940Z,6.79
2022-12-25T00:51:47.940Z,6.77
2022-12-25T00:52:47.924Z,6.71
2022-12-25T00:53:47.943Z,6.76
2022-12-25T00:54:47.940Z,6.77
2022-12-25T00:55:47.918Z,6.84
2022-12-25T00:56:47.924Z,6.85
2022-12-25T00:57:47.930Z,6.80
2022-12-25T00:58:47.923Z,6.73
2022-12-25T00:59:47.913Z,6.67
2022-12-25T01:00:47.987Z,6.64
2022-12-25T01:01:48.180Z,6.69
2022-12-25T01:02:48.015Z,6.64
2022-12-25T01:03:47.912Z,6.64
2022-12-25T01:04:47.931Z,6.66
2022-12-25T01:05:47.900Z,6.64
2022-12-25T01:06:47.910Z,6.69
2022-12-25T01:07:47.909Z,6.70
2022-12-25T01:08:47.909Z,6.67
2022-12-25T01:09:47.888Z,6.66
2022-12-25T01:10:47.892Z,6.70
2022-12-25T01:11:47.926Z,6.66
2022-12-25T01:12:47.884Z,6.69
2022-12-25T01:13:47.881Z,6.67
2022-12-25T01:14:47.892Z,6.66
2022-12-25T01:15:47.868Z,6.66
2022-12-25T01:16:47.943Z,6.59
2022-12-25T01:17:47.863Z,6.55
2022-12-25T01:18:47.876Z,6.55
2022-12-25T01:19:47.861Z,6.49
2022-12-25T01:20:47.867Z,6.51
2022-12-25T01:21:47.887Z,6.55
2022-12-25T01:22:47.854Z,6.51
2022-12-25T01:23:47.839Z,6.44
2022-12-25T01:24:47.858Z,6.49
2022-12-25T01:25:47.860Z,6.56
2022-12-25T01:26:47.841Z,6.48
2022-12-25T01:27:47.871Z,6.46
2022-12-25T01:28:47.832Z,6.36
2022-12-25T01:29:47.827Z,6.38
2022-12-25T01:30:47.832Z,6.37
2022-12-25T01:31:47.956Z,6.41
2022-12-25T01:32:47.843Z,6.36
2022-12-25T01:33:47.832Z,6.34
2022-12-25T01:34:53.776Z,6.43
2022-12-25T01:35:47.831Z,6.41
2022-12-25T01:36:47.819Z,6.37
2022-12-25T01:37:47.803Z,6.38
2022-12-25T01:38:47.861Z,6.43
2022-12-25T01:39:47.808Z,6.31
2022-12-25T01:40:47.793Z,6.22
2022-12-25T01:41:47.790Z,6.30
2022-12-25T01:42:47.794Z,6.28
2022-12-25T01:43:47.798Z,6.30
2022-12-25T01:44:47.812Z,6.25
2022-12-25T01:45:47.879Z,6.28
2022-12-25T01:46:47.803Z,6.22
2022-12-25T01:47:47.795Z,6.19
2022-12-25T01:48:47.818Z,6.14
2022-12-25T01:49:47.773Z,6.17
2022-12-25T01:50:47.781Z,6.17
2022-12-25T01:51:47.779Z,6.12
2022-12-25T01:52:47.775Z,6.12
2022-12-25T01:53:47.786Z,6.15
2022-12-25T01:54:47.763Z,6.03
2022-12-25T01:55:47.789Z,6.12
2022-12-25T01:56:47.747Z,6.03
2022-12-25T01:57:47.746Z,6.12
2022-12-25T01:58:47.782Z,6.08
2022-12-25T01:59:47.741Z,6.09
2022-12-25T02:00:47.800Z,5.97
2022-12-25T02:01:47.800Z,6.00
2022-12-25T02:02:47.892Z,5.99
2022-12-25T02:03:47.743Z,6.00
2022-12-25T02:04:47.746Z,5.93
2022-12-25T02:05:47.722Z,5.93
2022-12-25T02:06:47.732Z,5.93
2022-12-25T02:07:47.737Z,5.78
2022-12-25T02:08:47.733Z,5.86
2022-12-25T02:09:47.727Z,5.81
2022-12-25T02:10:47.717Z,5.81
2022-12-25T02:11:47.723Z,5.79
2022-12-25T02:12:47.722Z,5.75
2022-12-25T02:13:47.737Z,5.75
2022-12-25T02:14:47.711Z,5.74
2022-12-25T02:15:47.709Z,5.83
2022-12-25T02:16:56.740Z,5.71
2022-12-25T02:17:47.730Z,5.78
2022-12-25T02:18:47.714Z,5.76
2022-12-25T02:19:47.718Z,5.74
2022-12-25T02:20:47.684Z,5.72
2022-12-25T02:21:47.685Z,5.67
2022-12-25T02:22:47.698Z,5.74
2022-12-25T02:23:47.686Z,5.68
2022-12-25T02:24:47.689Z,5.75
2022-12-25T02:25:47.665Z,5.67
2022-12-25T02:26:47.687Z,5.65
2022-12-25T02:27:47.676Z,5.71
2022-12-25T02:28:47.666Z,5.61
2022-12-25T02:29:47.707Z,5.63
2022-12-25T02:30:47.654Z,5.65
2022-12-25T02:31:47.729Z,5.63
2022-12-25T02:32:47.679Z,5.60
2022-12-25T02:33:47.655Z,5.48
2022-12-25T02:34:47.675Z,5.54
2022-12-25T02:35:47.651Z,5.53
2022-12-25T02:36:47.653Z,5.42
2022-12-25T02:37:47.642Z,5.54
2022-12-25T02:38:47.651Z,5.40
2022-12-25T02:39:47.660Z,5.40
2022-12-25T02:40:47.641Z,5.40
2022-12-25T02:41:47.636Z,5.46
2022-12-25T02:42:47.671Z,5.46
2022-12-25T02:43:47.618Z,5.43
2022-12-25T02:44:47.639Z,5.35
2022-12-25T02:45:47.672Z,5.35
2022-12-25T02:46:47.607Z,5.42
2022-12-25T02:47:47.611Z,5.33
2022-12-25T02:48:47.597Z,5.30
2022-12-25T02:49:47.596Z,5.30
2022-12-25T02:50:47.618Z,5.33
2022-12-25T02:51:47.599Z,5.27
2022-12-25T02:52:47.591Z,5.33
2022-12-25T02:53:47.581Z,5.22
2022-12-25T02:54:47.601Z,5.17
2022-12-25T02:55:47.590Z,5.18
2022-12-25T02:56:47.600Z,5.22
2022-12-25T02:57:47.592Z,5.21
2022-12-25T02:58:47.568Z,5.18
2022-12-25T02:59:47.562Z,5.17
2022-12-25T03:00:47.662Z,5.18
2022-12-25T03:01:47.655Z,5.17
2022-12-25T03:02:47.573Z,5.18
2022-12-25T03:03:47.629Z,5.15
2022-12-25T03:04:47.552Z,5.18
2022-12-25T03:05:47.560Z,5.22
2022-12-25T03:06:47.590Z,5.17
2022-12-25T03:07:47.550Z,5.10
2022-12-25T03:08:47.557Z,5.12
2022-12-25T03:09:47.544Z,5.09
2022-12-25T03:10:47.532Z,5.10
2022-12-25T03:11:47.543Z,5.12
2022-12-25T03:12:47.540Z,5.15
2022-12-25T03:13:47.531Z,5.07
2022-12-25T03:14:47.535Z,5.09
2022-12-25T03:15:47.528Z,5.10
2022-12-25T03:16:47.548Z,5.02
2022-12-25T03:17:47.548Z,5.04
2022-12-25T03:18:47.517Z,4.99
2022-12-25T03:19:47.505Z,5.07
2022-12-25T03:20:47.518Z,5.02
2022-12-25T03:21:47.500Z,5.02
2022-12-25T03:22:47.523Z,5.00
2022-12-25T03:23:47.492Z,4.96
2022-12-25T03:24:47.493Z,5.00
2022-12-25T03:25:47.492Z,4.94
2022-12-25T03:26:47.487Z,4.96
2022-12-25T03:27:47.479Z,4.97
2022-12-25T03:28:47.483Z,4.89
2022-12-25T03:29:47.477Z,4.94
2022-12-25T03:30:47.501Z,4.89
2022-12-25T03:31:47.461Z,4.84
2022-12-25T03:32:47.462Z,4.85
2022-12-25T03:33:47.466Z,4.89
2022-12-25T03:34:47.457Z,4.80
2022-12-25T03:35:47.452Z,4.84
2022-12-25T03:36:47.440Z,4.92
2022-12-25T03:37:47.452Z,4.86
2022-12-25T03:38:47.459Z,4.91
2022-12-25T03:39:47.434Z,4.88
2022-12-25T03:40:47.463Z,4.92
2022-12-25T03:41:47.424Z,4.91
2022-12-25T03:42:47.437Z,4.88
2022-12-25T03:43:47.440Z,4.89
2022-12-25T03:44:47.414Z,4.96
2022-12-25T03:45:47.426Z,4.89
2022-12-25T03:46:47.428Z,4.89
2022-12-25T03:47:47.427Z,4.84
2022-12-25T03:48:47.409Z,4.84
2022-12-25T03:49:47.398Z,4.86
2022-12-25T03:50:47.427Z,4.92
2022-12-25T03:51:47.404Z,4.82
2022-12-25T03:52:47.391Z,4.85
2022-12-25T03:53:47.386Z,4.80
2022-12-25T03:54:47.383Z,4.84
2022-12-25T03:55:47.382Z,4.89
2022-12-25T03:56:47.407Z,4.85
2022-12-25T03:57:47.375Z,4.86
2022-12-25T03:58:47.405Z,4.84
2022-12-25T03:59:47.368Z,4.77
2022-12-25T04:00:47.358Z,4.75
2022-12-25T04:01:47.550Z,4.78
2022-12-25T04:02:47.432Z,4.78
2022-12-25T04:03:47.402Z,4.84
2022-12-25T04:04:47.377Z,4.84
2022-12-25T04:05:47.354Z,4.65
2022-12-25T04:06:47.346Z,4.70
2022-12-25T04:07:47.360Z,4.72
2022-12-25T04:08:47.347Z,4.73
2022-12-25T04:09:47.351Z,4.72
2022-12-25T04:10:47.357Z,4.69
2022-12-25T04:11:47.331Z,4.67
2022-12-25T04:12:47.334Z,4.78
2022-12-25T04:13:47.316Z,4.67
2022-12-25T04:14:47.328Z,4.65
2022-12-25T04:15:47.347Z,4.55
2022-12-25T04:16:47.348Z,4.67
2022-12-25T04:17:47.312Z,4.67
2022-12-25T04:18:47.328Z,4.70
2022-12-25T04:19:47.314Z,4.72
2022-12-25T04:20:47.317Z,4.69
2022-12-25T04:21:47.325Z,4.73
2022-12-25T04:22:56.780Z,4.72
2022-12-25T04:23:47.313Z,4.66
2022-12-25T04:24:47.285Z,4.80
2022-12-25T04:25:47.285Z,4.77
2022-12-25T04:26:47.278Z,4.78
2022-12-25T04:27:47.291Z,4.72
2022-12-25T04:28:47.284Z,4.70
2022-12-25T04:29:56.873Z,4.65
2022-12-25T04:30:47.286Z,4.73
2022-12-25T04:31:47.272Z,4.67
2022-12-25T04:32:47.255Z,4.58
2022-12-25T04:33:47.252Z,4.63
2022-12-25T04:34:47.253Z,4.75
2022-12-25T04:35:47.277Z,4.66
2022-12-25T04:36:47.273Z,4.72
2022-12-25T04:37:47.251Z,4.60
2022-12-25T04:38:47.238Z,4.62
2022-12-25T04:39:47.235Z,4.69
2022-12-25T04:40:47.234Z,4.59
2022-12-25T04:41:47.232Z,4.55
2022-12-25T04:42:47.240Z,4.67
2022-12-25T04:43:47.216Z,4.63
2022-12-25T04:44:47.205Z,4.65
2022-12-25T04:45:47.212Z,4.67
2022-12-25T04:46:47.240Z,4.72
2022-12-25T04:47:47.218Z,4.60
2022-12-25T04:48:47.203Z,4.69
2022-12-25T04:49:47.205Z,4.62
2022-12-25T04:50:47.186Z,4.65
2022-12-25T04:51:47.213Z,4.69
2022-12-25T04:52:47.193Z,4.78
2022-12-25T04:53:47.199Z,4.67
2022-12-25T04:54:47.171Z,4.70
2022-12-25T04:55:47.165Z,4.66
2022-12-25T04:56:47.174Z,4.66
2022-12-25T04:57:47.182Z,4.72
2022-12-25T04:58:47.156Z,4.75
2022-12-25T04:59:47.152Z,4.55
2022-12-25T05:00:47.152Z,4.60
2022-12-25T05:01:47.210Z,4.54
2022-12-25T05:02:47.337Z,4.45
2022-12-25T05:03:47.182Z,4.45
2022-12-25T05:04:47.135Z,4.41
2022-12-25T05:05:47.136Z,4.41
2022-12-25T05:06:47.143Z,4.48
2022-12-25T05:07:47.141Z,4.42
2022-12-25T05:08:47.120Z,4.32
2022-12-25T05:09:47.124Z,4.32
2022-12-25T05:10:47.133Z,4.30
2022-12-25T05:11:47.118Z,4.23
2022-12-25T05:12:47.122Z,4.32
2022-12-25T05:13:47.127Z,4.32
2022-12-25T05:14:47.105Z,4.24
2022-12-25T05:15:47.113Z,4.12
2022-12-25T05:16:47.101Z,4.11
2022-12-25T05:17:47.133Z,4.09
2022-12-25T05:18:47.082Z,4.12
2022-12-25T05:19:47.102Z,4.09
2022-12-25T05:20:47.119Z,4.11
2022-12-25T05:21:47.086Z,4.02
2022-12-25T05:22:47.073Z,4.00
2022-12-25T05:23:47.093Z,4.00
2022-12-25T05:24:47.088Z,3.94
2022-12-25T05:25:47.073Z,3.91
2022-12-25T05:26:47.067Z,3.90
2022-12-25T05:27:52.126Z,3.88
2022-12-25T05:28:47.045Z,3.79
2022-12-25T05:29:47.099Z,3.83
2022-12-25T05:30:47.045Z,3.76
2022-12-25T05:31:47.094Z,3.75
2022-12-25T05:32:47.043Z,3.78
2022-12-25T05:33:47.031Z,3.78
2022-12-25T05:34:47.028Z,3.69
2022-12-25T05:35:47.040Z,3.66
2022-12-25T05:36:47.018Z,3.70
2022-12-25T05:37:47.035Z,3.62
2022-12-25T05:38:47.024Z,3.68
2022-12-25T05:39:47.021Z,3.61
2022-12-25T05:40:47.003Z,3.75
2022-12-25T05:41:47.003Z,3.70
2022-12-25T05:42:47.023Z,3.60
2022-12-25T05:43:47.011Z,3.57
2022-12-25T05:44:47.000Z,3.66
2022-12-25T05:45:46.980Z,3.54
2022-12-25T05:46:47.040Z,3.54
2022-12-25T05:47:47.003Z,3.61
2022-12-25T05:48:47.792Z,3.66
2022-12-25T05:49:47.000Z,3.61
2022-12-25T05:50:46.983Z,3.72
2022-12-25T05:51:46.978Z,3.72
2022-12-25T05:52:46.970Z,3.69
2022-12-25T05:53:47.016Z,3.69
2022-12-25T05:54:46.944Z,3.72
2022-12-25T05:55:46.945Z,3.68
2022-12-25T05:56:46.955Z,3.58
2022-12-25T05:57:46.940Z,3.76
2022-12-25T05:58:46.938Z,3.69
2022-12-25T05:59:46.949Z,3.70
2022-12-25T06:00:46.937Z,3.76
2022-12-25T06:01:47.003Z,3.80
2022-12-25T06:02:47.131Z,3.73
2022-12-25T06:03:46.979Z,3.65
2022-12-25T06:04:46.934Z,3.62
2022-12-25T06:05:46.912Z,3.66
2022-12-25T06:06:46.919Z,3.68
2022-12-25T06:07:46.897Z,3.75
2022-12-25T06:08:46.908Z,3.83
2022-12-25T06:09:46.898Z,3.80
2022-12-25T06:10:46.923Z,3.78
2022-12-25T06:11:46.900Z,3.70
2022-12-25T06:12:46.892Z,3.73
2022-12-25T06:13:46.895Z,3.68
2022-12-25T06:14:48.255Z,3.72
2022-12-25T06:15:46.876Z,3.70
2022-12-25T06:16:46.971Z,3.73
2022-12-25T06:17:46.879Z,3.70
2022-12-25T06:18:46.876Z,3.73
2022-12-25T06:19:46.873Z,3.73
2022-12-25T06:20:46.856Z,3.70
2022-12-25T06:21:46.862Z,3.70
2022-12-25T06:22:46.858Z,3.73
2022-12-25T06:23:46.911Z,3.68
2022-12-25T06:24:46.852Z,3.75
2022-12-25T06:25:46.846Z,3.72
2022-12-25T06:26:46.837Z,3.75
2022-12-25T06:27:46.818Z,3.66
2022-12-25T06:28:46.820Z,3.62
2022-12-25T06:29:46.821Z,3.68
2022-12-25T06:30:46.815Z,3.58
2022-12-25T06:31:46.864Z,3.58
2022-12-25T06:32:46.837Z,3.58
2022-12-25T06:33:46.802Z,3.62
2022-12-25T06:34:46.796Z,3.66
2022-12-25T06:35:46.789Z,3.58
2022-12-25T06:36:46.801Z,3.66
2022-12-25T06:37:46.801Z,3.70
2022-12-25T06:38:46.785Z,3.66
2022-12-25T06:39:46.785Z,3.55
2022-12-25T06:40:46.785Z,3.62
2022-12-25T06:41:46.757Z,3.57
2022-12-25T06:42:57.680Z,3.60
2022-12-25T06:43:46.758Z,3.57
2022-12-25T06:44:47.258Z,3.55
2022-12-25T06:45:46.798Z,3.55
2022-12-25T06:46:46.769Z,3.51
2022-12-25T06:47:46.752Z,3.40
2022-12-25T06:48:46.773Z,3.50
2022-12-25T06:49:46.740Z,3.50
2022-12-25T06:50:46.721Z,3.48
2022-12-25T06:51:46.743Z,3.42
2022-12-25T06:52:46.755Z,3.35
2022-12-25T06:53:46.722Z,3.36
2022-12-25T06:54:46.717Z,3.39
2022-12-25T06:55:46.730Z,3.33
2022-12-25T06:56:48.453Z,3.23
2022-12-25T06:57:46.785Z,3.28
2022-12-25T06:58:47.265Z,3.28
2022-12-25T07:02:34.318Z,3.31
2022-12-25T07:03:32.661Z,3.32
2022-12-25T07:04:32.637Z,3.43
2022-12-25T07:05:32.609Z,3.35
2022-12-25T07:07:06.171Z,3.40
2022-12-25T07:07:32.608Z,3.45
2022-12-25T07:08:32.597Z,3.40
2022-12-25T07:09:32.623Z,3.42
2022-12-25T07:10:32.618Z,3.45
2022-12-25T07:11:32.600Z,3.48
2022-12-25T07:12:32.613Z,3.50
2022-12-25T07:13:32.585Z,3.39
2022-12-25T07:14:32.582Z,3.35
2022-12-25T07:15:32.599Z,3.40
2022-12-25T07:16:32.623Z,3.21
2022-12-25T07:17:32.578Z,3.35
2022-12-25T07:18:32.596Z,3.26
2022-12-25T07:19:32.576Z,3.23
2022-12-25T07:20:32.544Z,3.18
2022-12-25T07:21:32.562Z,3.14
2022-12-25T07:22:32.553Z,3.08
2022-12-25T07:23:32.539Z,3.21
2022-12-25T07:24:32.531Z,3.02
2022-12-25T07:25:37.241Z,3.13
2022-12-25T07:26:32.514Z,3.10
2022-12-25T07:27:32.527Z,3.06
2022-12-25T07:28:32.509Z,3.18
2022-12-25T07:29:32.532Z,3.17
2022-12-25T07:30:32.587Z,3.23
2022-12-25T07:31:32.552Z,3.21
2022-12-25T07:32:32.530Z,3.20
2022-12-25T07:33:32.520Z,3.13
2022-12-25T07:34:32.492Z,3.08
2022-12-25T07:35:32.477Z,3.15
2022-12-25T07:36:32.483Z,3.11
2022-12-25T07:37:32.506Z,3.08
2022-12-25T07:38:32.469Z,3.03
2022-12-25T07:39:32.484Z,3.05
2022-12-25T07:40:32.468Z,3.15
2022-12-25T07:41:32.458Z,3.10
2022-12-25T07:42:32.458Z,3.05
2022-12-25T07:43:32.465Z,3.11
2022-12-25T07:44:32.455Z,3.05
2022-12-25T07:45:32.460Z,3.18
2022-12-25T07:46:32.436Z,3.08
2022-12-25T07:47:32.458Z,3.06
2022-12-25T07:48:32.424Z,3.17
2022-12-25T07:49:32.423Z,3.06
2022-12-25T07:50:32.483Z,3.13
2022-12-25T07:51:32.428Z,3.05
2022-12-25T07:52:36.617Z,3.05
2022-12-25T07:53:32.429Z,3.10
2022-12-25T07:54:32.408Z,3.17
2022-12-25T07:55:32.385Z,3.11
2022-12-25T07:56:32.397Z,3.18
2022-12-25T07:57:32.383Z,3.26
2022-12-25T07:58:32.399Z,3.32
2022-12-25T07:59:32.439Z,3.24
2022-12-25T08:00:32.436Z,3.39
2022-12-25T08:01:32.535Z,3.36
2022-12-25T08:02:32.612Z,3.39
2022-12-25T08:03:32.682Z,3.35
2022-12-25T08:04:32.347Z,3.26
2022-12-25T08:05:43.737Z,3.20
2022-12-25T08:06:32.427Z,3.23
2022-12-25T08:07:32.358Z,3.20
2022-12-25T08:08:32.403Z,3.24
2022-12-25T08:09:32.328Z,3.29
2022-12-25T08:10:32.321Z,3.24
2022-12-25T08:11:32.389Z,3.40
2022-12-25T08:12:49.311Z,3.39
2022-12-25T08:13:32.391Z,3.47
2022-12-25T08:14:32.335Z,3.57
2022-12-25T08:15:48.937Z,3.72
2022-12-25T08:16:33.260Z,3.69
2022-12-25T08:17:32.360Z,3.78
2022-12-25T08:18:32.384Z,3.83
2022-12-25T08:19:32.356Z,3.93
2022-12-25T08:20:32.287Z,4.02
2022-12-25T08:21:32.271Z,3.93
2022-12-25T08:22:32.281Z,3.97
2022-12-25T08:23:32.274Z,4.11
2022-12-25T08:24:32.289Z,4.14
2022-12-25T08:25:32.290Z,4.24
2022-12-25T08:26:32.264Z,4.32
2022-12-25T08:27:32.245Z,4.26
2022-12-25T08:28:32.244Z,4.36
2022-12-25T08:29:32.250Z,4.34
2022-12-25T08:30:32.331Z,4.41
2022-12-25T08:31:32.259Z,4.40
2022-12-25T08:32:32.228Z,4.27
2022-12-25T08:33:32.249Z,4.40
2022-12-25T08:34:32.230Z,4.34
2022-12-25T08:35:32.228Z,4.37
2022-12-25T08:36:42.407Z,4.47
2022-12-25T08:37:32.226Z,4.45
2022-12-25T08:38:32.202Z,4.54
2022-12-25T08:39:32.207Z,4.54
2022-12-25T08:40:32.205Z,4.63
2022-12-25T08:41:32.273Z,4.59
2022-12-25T08:42:32.198Z,4.77
2022-12-25T08:43:32.200Z,4.84
2022-12-25T08:44:32.182Z,4.77
2022-12-25T08:45:35.206Z,4.78
2022-12-25T08:46:32.261Z,4.92
2022-12-25T08:47:32.175Z,4.86
2022-12-25T08:48:32.171Z,4.91
2022-12-25T08:49:32.170Z,4.91
2022-12-25T08:50:32.151Z,5.00
2022-12-25T08:51:32.152Z,5.00
2022-12-25T08:52:32.159Z,5.12
2022-12-25T08:53:32.149Z,5.18
2022-12-25T08:54:32.151Z,5.22
2022-12-25T08:55:32.146Z,5.20
2022-12-25T08:56:32.130Z,5.22
2022-12-25T08:57:32.155Z,5.24
2022-12-25T08:58:32.153Z,5.35
2022-12-25T08:59:32.153Z,5.51
2022-12-25T09:00:32.120Z,5.39
2022-12-25T09:01:32.195Z,5.48
2022-12-25T09:02:32.436Z,5.48
2022-12-25T09:03:32.306Z,5.57
2022-12-25T09:04:32.122Z,5.72
2022-12-25T09:05:32.097Z,5.71
2022-12-25T09:06:32.103Z,5.72
2022-12-25T09:07:32.096Z,5.85
2022-12-25T09:08:32.096Z,5.93
2022-12-25T09:09:32.114Z,6.00
2022-12-25T09:10:32.128Z,6.09
2022-12-25T09:11:32.091Z,6.06
2022-12-25T09:12:32.085Z,6.19
2022-12-25T09:13:32.099Z,6.11
2022-12-25T09:14:32.085Z,6.11
2022-12-25T09:15:32.146Z,6.22
2022-12-25T09:16:32.118Z,6.25
2022-12-25T09:17:32.065Z,6.40
2022-12-25T09:18:32.080Z,6.44
2022-12-25T09:19:32.059Z,6.48
2022-12-25T09:20:32.053Z,6.51
2022-12-25T09:21:32.068Z,6.58
2022-12-25T09:22:32.048Z,6.69
2022-12-25T09:23:32.041Z,6.73
2022-12-25T09:24:32.077Z,6.73
2022-12-25T09:25:32.047Z,6.91
2022-12-25T09:26:32.048Z,6.79
2022-12-25T09:27:32.035Z,6.76
2022-12-25T09:28:32.042Z,6.69
2022-12-25T09:29:32.084Z,6.70
2022-12-25T09:30:32.068Z,6.58
2022-12-25T09:31:32.072Z,6.54
2022-12-25T09:32:32.021Z,6.36
2022-12-25T09:33:32.029Z,6.40
2022-12-25T09:34:32.025Z,6.21
2022-12-25T09:35:32.045Z,6.00
2022-12-25T09:36:32.030Z,5.99
2022-12-25T09:37:32.024Z,5.91
2022-12-25T09:38:32.016Z,5.79
2022-12-25T09:39:31.991Z,5.79
2022-12-25T09:40:32.033Z,5.79
2022-12-25T09:41:32.012Z,5.85
2022-12-25T09:42:32.017Z,5.78
2022-12-25T09:43:31.997Z,5.79
2022-12-25T09:44:31.982Z,5.68
2022-12-25T09:45:31.985Z,5.81
2022-12-25T09:46:37.137Z,5.83
2022-12-25T09:47:31.982Z,5.89
2022-12-25T09:48:31.985Z,5.89
2022-12-25T09:49:31.989Z,5.83
2022-12-25T09:52:04.134Z,5.97
2022-12-25T09:53:04.627Z,6.01
2022-12-25T09:54:04.023Z,6.08
2022-12-25T09:55:04.165Z,6.11
2022-12-25T09:56:04.014Z,6.22
2022-12-25T09:57:06.630Z,6.28
2022-12-25T09:58:04.015Z,6.38
2022-12-25T09:59:04.003Z,6.36
2022-12-25T10:00:04.016Z,6.28
2022-12-25T10:01:04.004Z,6.28
2022-12-25T10:02:04.164Z,6.38
2022-12-25T10:03:04.148Z,6.37
2022-12-25T10:04:04.019Z,6.38
2022-12-25T10:05:04.870Z,6.40
2022-12-25T10:06:03.997Z,6.46
2022-12-25T10:07:03.984Z,6.49
2022-12-25T10:08:03.981Z,6.51
2022-12-25T10:09:03.987Z,6.64
2022-12-25T10:10:03.991Z,6.64
2022-12-25T10:11:03.967Z,6.58
2022-12-25T10:12:03.975Z,6.66
2022-12-25T10:13:03.974Z,6.56
2022-12-25T10:14:03.971Z,6.64
2022-12-25T10:15:03.970Z,6.66
2022-12-25T10:16:04.063Z,6.70
2022-12-25T10:17:03.954Z,6.61
2022-12-25T10:18:03.979Z,6.59
2022-12-25T10:19:03.948Z,6.69
2022-12-25T10:20:04.009Z,6.67
2022-12-25T10:21:08.005Z,6.67
2022-12-25T10:22:03.969Z,6.67
2022-12-25T10:23:03.940Z,6.70
2022-12-25T10:24:03.942Z,6.70
2022-12-25T10:25:03.940Z,6.70
2022-12-25T10:26:04.214Z,6.70
2022-12-25T10:27:03.927Z,6.69
2022-12-25T10:28:03.928Z,6.62
2022-12-25T10:29:03.963Z,6.52
2022-12-25T10:30:03.940Z,6.56
2022-12-25T10:31:03.979Z,6.51
2022-12-25T10:32:03.913Z,6.46
2022-12-25T10:33:03.907Z,6.44
2022-12-25T10:34:03.922Z,6.44
2022-12-25T10:35:03.906Z,6.40
2022-12-25T10:36:03.900Z,6.40
2022-12-25T10:37:03.945Z,6.44
2022-12-25T10:38:12.417Z,6.58
2022-12-25T10:39:04.781Z,6.56
2022-12-25T10:40:04.037Z,6.61
2022-12-25T10:41:03.899Z,6.58
2022-12-25T10:42:03.892Z,6.71
2022-12-25T10:43:05.650Z,6.69
2022-12-25T10:44:03.885Z,6.69
2022-12-25T10:45:03.914Z,6.87
2022-12-25T10:46:03.914Z,6.89
2022-12-25T10:47:03.880Z,6.84
2022-12-25T10:48:07.369Z,6.91
2022-12-25T10:49:03.879Z,6.81
2022-12-25T10:50:03.887Z,6.87
2022-12-25T10:51:03.854Z,6.80
2022-12-25T10:52:03.892Z,6.84
2022-12-25T10:53:03.904Z,6.80
2022-12-25T10:54:03.865Z,6.85
2022-12-25T10:55:04.622Z,6.81
2022-12-25T10:56:03.860Z,6.84
2022-12-25T10:57:03.880Z,6.84
2022-12-25T10:58:03.863Z,6.84
2022-12-25T10:59:03.861Z,6.84
2022-12-25T11:00:03.832Z,6.81
2022-12-25T11:01:03.873Z,6.81
2022-12-25T11:02:03.990Z,6.79
2022-12-25T11:03:03.955Z,6.87
2022-12-25T11:04:03.899Z,6.79
2022-12-25T11:05:03.840Z,6.81
2022-12-25T11:06:03.831Z,6.77
2022-12-25T11:07:03.811Z,6.79
2022-12-25T11:08:03.854Z,6.76
2022-12-25T11:09:03.815Z,6.77
2022-12-25T11:10:05.571Z,6.79
2022-12-25T11:11:03.845Z,6.81
2022-12-25T11:12:03.803Z,6.81
2022-12-25T11:13:03.800Z,6.80
2022-12-25T11:14:03.822Z,6.88
2022-12-25T11:15:03.796Z,6.85
2022-12-25T11:16:03.859Z,6.92
2022-12-25T11:17:03.803Z,6.95
2022-12-25T11:18:03.776Z,6.98
2022-12-25T11:19:03.778Z,6.97
2022-12-25T11:20:03.801Z,6.97
2022-12-25T11:21:03.775Z,6.97
2022-12-25T11:22:03.767Z,6.91
2022-12-25T11:23:03.769Z,6.84
2022-12-25T11:24:04.762Z,6.84
2022-12-25T11:25:03.786Z,6.81
2022-12-25T11:26:03.772Z,6.81
2022-12-25T11:27:03.779Z,6.79
2022-12-25T11:28:03.826Z,6.85
2022-12-25T11:29:03.777Z,6.74
2022-12-25T11:30:03.774Z,6.77
2022-12-25T11:31:03.785Z,6.79
2022-12-25T11:32:03.761Z,6.76
2022-12-25T11:33:03.737Z,6.80
2022-12-25T11:34:03.722Z,6.73
2022-12-25T11:35:03.724Z,6.77
2022-12-25T11:36:03.729Z,6.76
2022-12-25T11:37:03.758Z,6.76
2022-12-25T11:38:03.741Z,6.76
2022-12-25T11:39:03.729Z,6.76
2022-12-25T11:40:03.729Z,6.79
2022-12-25T11:41:03.715Z,6.73
2022-12-25T11:42:03.730Z,6.79
2022-12-25T11:43:07.889Z,6.87
2022-12-25T11:44:03.713Z,6.81
2022-12-25T11:45:03.731Z,6.74
2022-12-25T11:46:03.856Z,6.81
2022-12-25T11:47:03.749Z,6.74
2022-12-25T11:48:03.705Z,6.79
2022-12-25T11:49:03.696Z,6.74
2022-12-25T11:50:03.709Z,6.80
2022-12-25T11:51:03.679Z,6.71
2022-12-25T11:52:03.681Z,6.76
2022-12-25T11:53:03.664Z,6.79
2022-12-25T11:54:03.697Z,6.74
2022-12-25T11:55:03.681Z,6.76
2022-12-25T11:56:03.671Z,6.87
2022-12-25T11:57:03.668Z,6.81
2022-12-25T11:58:03.684Z,6.81
2022-12-25T11:59:03.657Z,6.84
2022-12-25T12:00:03.697Z,6.84
2022-12-25T12:01:03.659Z,6.91
2022-12-25T12:02:03.746Z,6.91
2022-12-25T12:03:03.741Z,6.89
2022-12-25T12:04:03.663Z,6.88
2022-12-25T12:05:03.657Z,6.88
2022-12-25T12:06:03.664Z,6.95
2022-12-25T12:07:03.634Z,6.91
2022-12-25T12:08:03.632Z,6.94
2022-12-25T12:09:03.646Z,6.95
2022-12-25T12:10:03.616Z,6.97
2022-12-25T12:11:03.659Z,6.94
2022-12-25T12:12:03.610Z,6.97
2022-12-25T12:13:03.622Z,7.02
2022-12-25T12:14:03.618Z,7.05
2022-12-25T12:15:03.641Z,7.05
2022-12-25T12:16:03.639Z,7.05
2022-12-25T12:17:03.627Z,7.10
2022-12-25T12:18:03.604Z,6.98
2022-12-25T12:19:03.606Z,6.99
2022-12-25T12:20:03.580Z,7.10
2022-12-25T12:21:03.586Z,7.02
2022-12-25T12:22:03.603Z,7.07
2022-12-25T12:23:03.587Z,7.15
2022-12-25T12:24:03.574Z,7.20
2022-12-25T12:25:03.572Z,7.13
2022-12-25T12:26:03.583Z,7.17
2022-12-25T12:27:03.588Z,7.25
2022-12-25T12:28:05.864Z,7.27
2022-12-25T12:29:03.585Z,7.24
2022-12-25T12:30:03.593Z,7.24
2022-12-25T12:31:03.547Z,7.30
2022-12-25T12:32:03.612Z,7.39
2022-12-25T12:33:03.578Z,7.32
2022-12-25T12:34:03.551Z,7.24
2022-12-25T12:35:03.558Z,7.24
2022-12-25T12:36:03.545Z,7.37
2022-12-25T12:37:03.539Z,7.34
2022-12-25T12:38:03.540Z,7.32
2022-12-25T12:39:03.554Z,7.30
2022-12-25T12:40:03.514Z,7.35
2022-12-25T12:41:03.520Z,7.34
2022-12-25T12:42:03.535Z,7.39
2022-12-25T12:43:03.534Z,7.35
2022-12-25T12:44:03.554Z,7.42
2022-12-25T12:45:03.517Z,7.43
2022-12-25T12:46:03.586Z,7.46
2022-12-25T12:47:03.522Z,7.49
2022-12-25T12:48:03.504Z,7.46
2022-12-25T12:49:03.524Z,7.48
2022-12-25T12:50:03.545Z,7.34
2022-12-25T12:51:03.490Z,7.42
2022-12-25T12:52:03.520Z,7.42
2022-12-25T12:53:03.484Z,7.42
2022-12-25T12:54:03.505Z,7.46
2022-12-25T12:55:03.491Z,7.43
2022-12-25T12:56:03.483Z,7.40
2022-12-25T12:57:03.502Z,7.40
2022-12-25T12:58:03.502Z,7.40
2022-12-25T12:59:03.510Z,7.43
2022-12-25T13:00:10.702Z,7.42
2022-12-25T13:01:03.553Z,7.46
2022-12-25T13:02:03.735Z,7.42
2022-12-25T13:03:03.519Z,7.45
2022-12-25T13:04:03.463Z,7.42
2022-12-25T13:05:03.495Z,7.52
2022-12-25T13:06:03.457Z,7.46
2022-12-25T13:07:03.458Z,7.43
2022-12-25T13:08:03.459Z,7.53
2022-12-25T13:09:03.451Z,7.58
2022-12-25T13:10:03.443Z,7.57
2022-12-25T13:11:03.469Z,7.61
2022-12-25T13:12:03.421Z,7.57
2022-12-25T13:13:03.435Z,7.57
2022-12-25T13:14:03.424Z,7.63
2022-12-25T13:15:03.435Z,7.61
2022-12-25T13:16:03.436Z,7.60
2022-12-25T13:17:03.627Z,7.63
2022-12-25T13:18:03.407Z,7.64
2022-12-25T13:19:03.401Z,7.67
2022-12-25T13:20:03.417Z,7.61
2022-12-25T13:21:03.448Z,7.69
2022-12-25T13:22:03.417Z,7.55
2022-12-25T13:23:03.429Z,7.55